CPX437 Details

Departure: Cincinnati/Northern Kentucky International Airport (KCVG)
Arrival: Philadelphia International Airport (KPHL) at N/A
Route: ROCKT9 AHTIY JST BOJID2
Notes:


Current Weather Information
KCVG 250352Z 08011KT 10SM FEW250 20/11 A3016 RMK AO2 SLP204 T02000111
KPHL 250354Z 00000KT 10SM FEW085 19/12 A3023 RMK AO2 SLP237 T01940117 $